sensor_id;sensor_type;location;lat;lon;timestamp;P1;durP1;ratioP1;P2;durP2;ratioP2
22883;SDS011;13386;24.786;110.488;2023-02-18T00:05:37;64.25;;;21.95;;
22883;SDS011;13386;24.786;110.488;2023-02-18T00:08:07;64.90;;;22.42;;
22883;SDS011;13386;24.786;110.488;2023-02-18T00:10:41;62.38;;;21.55;;
22883;SDS011;13386;24.786;110.488;2023-02-18T00:13:11;62.13;;;21.67;;
22883;SDS011;13386;24.786;110.488;2023-02-18T00:15:41;67.97;;;22.25;;
22883;SDS011;13386;24.786;110.488;2023-02-18T00:18:11;72.97;;;22.75;;
22883;SDS011;13386;24.786;110.488;2023-02-18T00:20:41;63.97;;;22.15;;
22883;SDS011;13386;24.786;110.488;2023-02-18T00:23:12;66.35;;;23.27;;
22883;SDS011;13386;24.786;110.488;2023-02-18T00:25:43;61.95;;;21.33;;
22883;SDS011;13386;24.786;110.488;2023-02-18T00:28:13;64.70;;;22.85;;
22883;SDS011;13386;24.786;110.488;2023-02-18T00:30:43;67.43;;;23.52;;
22883;SDS011;13386;24.786;110.488;2023-02-18T00:33:14;69.38;;;22.50;;
22883;SDS011;13386;24.786;110.488;2023-02-18T00:35:44;70.40;;;23.27;;
22883;SDS011;13386;24.786;110.488;2023-02-18T00:38:15;71.45;;;23.23;;
22883;SDS011;13386;24.786;110.488;2023-02-18T00:40:47;62.92;;;21.98;;
22883;SDS011;13386;24.786;110.488;2023-02-18T00:43:17;66.80;;;23.40;;
22883;SDS011;13386;24.786;110.488;2023-02-18T00:45:47;78.45;;;24.02;;
22883;SDS011;13386;24.786;110.488;2023-02-18T00:48:18;64.35;;;22.70;;
22883;SDS011;13386;24.786;110.488;2023-02-18T00:50:49;68.93;;;23.88;;
22883;SDS011;13386;24.786;110.488;2023-02-18T00:53:19;68.75;;;24.20;;
22883;SDS011;13386;24.786;110.488;2023-02-18T00:55:51;74.68;;;25.83;;
22883;SDS011;13386;24.786;110.488;2023-02-18T00:58:21;67.95;;;25.15;;
22883;SDS011;13386;24.786;110.488;2023-02-18T01:00:51;71.32;;;24.85;;
22883;SDS011;13386;24.786;110.488;2023-02-18T01:03:21;75.63;;;25.48;;
22883;SDS011;13386;24.786;110.488;2023-02-18T01:05:52;73.88;;;24.60;;
22883;SDS011;13386;24.786;110.488;2023-02-18T01:08:23;68.88;;;23.73;;
22883;SDS011;13386;24.786;110.488;2023-02-18T01:10:56;73.47;;;24.05;;
22883;SDS011;13386;24.786;110.488;2023-02-18T01:13:26;71.45;;;25.13;;
22883;SDS011;13386;24.786;110.488;2023-02-18T01:15:56;77.72;;;25.65;;
22883;SDS011;13386;24.786;110.488;2023-02-18T01:18:29;69.45;;;26.13;;
22883;SDS011;13386;24.786;110.488;2023-02-18T01:20:59;81.03;;;25.88;;
22883;SDS011;13386;24.786;110.488;2023-02-18T01:23:30;80.22;;;26.00;;
22883;SDS011;13386;24.786;110.488;2023-02-18T01:26:02;68.60;;;25.38;;
22883;SDS011;13386;24.786;110.488;2023-02-18T01:28:36;72.75;;;26.20;;
22883;SDS011;13386;24.786;110.488;2023-02-18T01:31:07;75.63;;;25.75;;
22883;SDS011;13386;24.786;110.488;2023-02-18T01:33:38;75.05;;;25.27;;
22883;SDS011;13386;24.786;110.488;2023-02-18T01:36:09;66.32;;;24.23;;
22883;SDS011;13386;24.786;110.488;2023-02-18T01:38:39;76.15;;;25.95;;
22883;SDS011;13386;24.786;110.488;2023-02-18T01:41:12;71.32;;;25.13;;
22883;SDS011;13386;24.786;110.488;2023-02-18T01:43:42;73.03;;;24.17;;
22883;SDS011;13386;24.786;110.488;2023-02-18T01:46:13;75.05;;;25.38;;
22883;SDS011;13386;24.786;110.488;2023-02-18T01:48:46;91.80;;;28.23;;
22883;SDS011;13386;24.786;110.488;2023-02-18T01:51:18;76.60;;;25.05;;
22883;SDS011;13386;24.786;110.488;2023-02-18T01:53:49;73.80;;;25.42;;
22883;SDS011;13386;24.786;110.488;2023-02-18T01:56:25;77.35;;;26.08;;
22883;SDS011;13386;24.786;110.488;2023-02-18T01:58:56;68.53;;;23.63;;
22883;SDS011;13386;24.786;110.488;2023-02-18T02:01:28;63.20;;;22.85;;
22883;SDS011;13386;24.786;110.488;2023-02-18T02:04:01;69.85;;;23.20;;
22883;SDS011;13386;24.786;110.488;2023-02-18T02:06:31;71.70;;;22.10;;
22883;SDS011;13386;24.786;110.488;2023-02-18T02:09:03;69.00;;;22.23;;
22883;SDS011;13386;24.786;110.488;2023-02-18T02:11:47;68.75;;;22.45;;
22883;SDS011;13386;24.786;110.488;2023-02-18T02:16:51;62.30;;;21.33;;
22883;SDS011;13386;24.786;110.488;2023-02-18T02:19:40;61.72;;;21.08;;
22883;SDS011;13386;24.786;110.488;2023-02-18T02:33:33;63.65;;;22.15;;
22883;SDS011;13386;24.786;110.488;2023-02-18T02:36:09;76.68;;;23.02;;
22883;SDS011;13386;24.786;110.488;2023-02-18T02:38:45;66.75;;;22.20;;
22883;SDS011;13386;24.786;110.488;2023-02-18T02:41:20;69.22;;;22.05;;
22883;SDS011;13386;24.786;110.488;2023-02-18T02:43:57;66.10;;;21.27;;
22883;SDS011;13386;24.786;110.488;2023-02-18T02:46:33;64.85;;;21.27;;
22883;SDS011;13386;24.786;110.488;2023-02-18T02:49:06;67.00;;;20.95;;
22883;SDS011;13386;24.786;110.488;2023-02-18T02:51:45;62.33;;;21.63;;
22883;SDS011;13386;24.786;110.488;2023-02-18T02:54:18;64.35;;;20.83;;
22883;SDS011;13386;24.786;110.488;2023-02-18T02:56:48;67.22;;;21.35;;
22883;SDS011;13386;24.786;110.488;2023-02-18T02:59:22;65.72;;;21.65;;
22883;SDS011;13386;24.786;110.488;2023-02-18T03:01:58;63.60;;;21.02;;
22883;SDS011;13386;24.786;110.488;2023-02-18T03:04:35;57.58;;;19.83;;
22883;SDS011;13386;24.786;110.488;2023-02-18T03:07:20;57.35;;;19.75;;
22883;SDS011;13386;24.786;110.488;2023-02-18T03:09:58;58.97;;;19.38;;
22883;SDS011;13386;24.786;110.488;2023-02-18T03:12:33;59.17;;;20.77;;
22883;SDS011;13386;24.786;110.488;2023-02-18T03:15:11;59.53;;;20.63;;
22883;SDS011;13386;24.786;110.488;2023-02-18T03:17:45;59.83;;;20.58;;
22883;SDS011;13386;24.786;110.488;2023-02-18T03:20:18;61.42;;;20.10;;
22883;SDS011;13386;24.786;110.488;2023-02-18T03:22:54;59.53;;;19.88;;
22883;SDS011;13386;24.786;110.488;2023-02-18T03:25:25;63.15;;;20.02;;
22883;SDS011;13386;24.786;110.488;2023-02-18T03:27:57;63.95;;;21.08;;
22883;SDS011;13386;24.786;110.488;2023-02-18T03:30:29;57.90;;;19.85;;
22883;SDS011;13386;24.786;110.488;2023-02-18T03:33:01;56.47;;;18.60;;
22883;SDS011;13386;24.786;110.488;2023-02-18T03:35:32;55.20;;;19.10;;
22883;SDS011;13386;24.786;110.488;2023-02-18T03:38:06;55.13;;;18.17;;
22883;SDS011;13386;24.786;110.488;2023-02-18T03:40:38;50.78;;;18.05;;
22883;SDS011;13386;24.786;110.488;2023-02-18T03:43:08;54.65;;;18.73;;
22883;SDS011;13386;24.786;110.488;2023-02-18T03:45:39;58.53;;;18.70;;
22883;SDS011;13386;24.786;110.488;2023-02-18T03:48:09;64.10;;;19.42;;
22883;SDS011;13386;24.786;110.488;2023-02-18T03:50:39;51.30;;;17.83;;
22883;SDS011;13386;24.786;110.488;2023-02-18T03:53:11;50.92;;;18.00;;
22883;SDS011;13386;24.786;110.488;2023-02-18T03:55:41;46.50;;;16.10;;
22883;SDS011;13386;24.786;110.488;2023-02-18T03:58:11;44.30;;;15.02;;
22883;SDS011;13386;24.786;110.488;2023-02-18T04:00:41;50.85;;;16.85;;
22883;SDS011;13386;24.786;110.488;2023-02-18T04:03:11;53.83;;;17.48;;
22883;SDS011;13386;24.786;110.488;2023-02-18T04:05:42;49.65;;;16.75;;
22883;SDS011;13386;24.786;110.488;2023-02-18T04:08:13;46.83;;;16.40;;
22883;SDS011;13386;24.786;110.488;2023-02-18T04:10:44;44.05;;;16.23;;
22883;SDS011;13386;24.786;110.488;2023-02-18T04:13:15;47.72;;;16.38;;
22883;SDS011;13386;24.786;110.488;2023-02-18T04:15:47;43.20;;;15.45;;
22883;SDS011;13386;24.786;110.488;2023-02-18T04:18:17;45.10;;;16.02;;
22883;SDS011;13386;24.786;110.488;2023-02-18T04:20:49;46.55;;;15.68;;
22883;SDS011;13386;24.786;110.488;2023-02-18T04:23:21;45.22;;;16.20;;
22883;SDS011;13386;24.786;110.488;2023-02-18T04:25:51;51.35;;;17.55;;
22883;SDS011;13386;24.786;110.488;2023-02-18T04:28:21;50.58;;;16.35;;
22883;SDS011;13386;24.786;110.488;2023-02-18T04:30:52;52.22;;;16.23;;
22883;SDS011;13386;24.786;110.488;2023-02-18T04:33:22;48.70;;;17.30;;
22883;SDS011;13386;24.786;110.488;2023-02-18T04:35:52;48.72;;;16.20;;
22883;SDS011;13386;24.786;110.488;2023-02-18T04:38:24;50.65;;;16.80;;
22883;SDS011;13386;24.786;110.488;2023-02-18T04:40:54;53.10;;;17.02;;
22883;SDS011;13386;24.786;110.488;2023-02-18T04:43:24;51.53;;;16.60;;
22883;SDS011;13386;24.786;110.488;2023-02-18T04:45:54;52.25;;;16.55;;
22883;SDS011;13386;24.786;110.488;2023-02-18T04:48:25;53.35;;;16.33;;
22883;SDS011;13386;24.786;110.488;2023-02-18T04:50:55;47.35;;;16.52;;
22883;SDS011;13386;24.786;110.488;2023-02-18T04:53:27;42.72;;;15.48;;
22883;SDS011;13386;24.786;110.488;2023-02-18T04:55:57;49.45;;;16.02;;
22883;SDS011;13386;24.786;110.488;2023-02-18T04:58:28;47.25;;;16.38;;
22883;SDS011;13386;24.786;110.488;2023-02-18T05:00:59;41.58;;;15.25;;
22883;SDS011;13386;24.786;110.488;2023-02-18T05:03:30;47.85;;;16.27;;
22883;SDS011;13386;24.786;110.488;2023-02-18T05:06:00;50.28;;;16.17;;
22883;SDS011;13386;24.786;110.488;2023-02-18T05:08:32;54.65;;;17.20;;
22883;SDS011;13386;24.786;110.488;2023-02-18T05:11:04;46.10;;;15.98;;
22883;SDS011;13386;24.786;110.488;2023-02-18T05:13:34;47.50;;;16.40;;
22883;SDS011;13386;24.786;110.488;2023-02-18T05:16:06;48.83;;;15.68;;
22883;SDS011;13386;24.786;110.488;2023-02-18T05:18:36;50.97;;;17.30;;
22883;SDS011;13386;24.786;110.488;2023-02-18T05:21:06;48.40;;;16.67;;
22883;SDS011;13386;24.786;110.488;2023-02-18T05:23:40;51.88;;;16.10;;
22883;SDS011;13386;24.786;110.488;2023-02-18T05:26:10;45.47;;;14.77;;
22883;SDS011;13386;24.786;110.488;2023-02-18T05:28:41;53.08;;;17.23;;
22883;SDS011;13386;24.786;110.488;2023-02-18T05:31:11;48.50;;;17.70;;
22883;SDS011;13386;24.786;110.488;2023-02-18T05:33:44;46.38;;;16.70;;
22883;SDS011;13386;24.786;110.488;2023-02-18T05:36:15;48.30;;;15.70;;
22883;SDS011;13386;24.786;110.488;2023-02-18T05:38:47;48.08;;;15.82;;
22883;SDS011;13386;24.786;110.488;2023-02-18T05:41:17;48.35;;;17.42;;
22883;SDS011;13386;24.786;110.488;2023-02-18T05:43:47;48.35;;;16.42;;
22883;SDS011;13386;24.786;110.488;2023-02-18T05:46:33;51.08;;;16.17;;
22883;SDS011;13386;24.786;110.488;2023-02-18T05:49:06;46.85;;;15.68;;
22883;SDS011;13386;24.786;110.488;2023-02-18T05:51:36;44.90;;;13.45;;
22883;SDS011;13386;24.786;110.488;2023-02-18T05:54:11;39.72;;;15.00;;
22883;SDS011;13386;24.786;110.488;2023-02-18T05:56:41;43.03;;;15.27;;
22883;SDS011;13386;24.786;110.488;2023-02-18T05:59:12;43.97;;;15.20;;
22883;SDS011;13386;24.786;110.488;2023-02-18T06:01:42;44.33;;;14.98;;
22883;SDS011;13386;24.786;110.488;2023-02-18T06:04:12;39.08;;;14.73;;
22883;SDS011;13386;24.786;110.488;2023-02-18T06:06:43;50.65;;;16.42;;
22883;SDS011;13386;24.786;110.488;2023-02-18T06:09:16;39.25;;;14.20;;
22883;SDS011;13386;24.786;110.488;2023-02-18T06:11:46;40.90;;;13.82;;
22883;SDS011;13386;24.786;110.488;2023-02-18T06:14:17;41.13;;;15.07;;
22883;SDS011;13386;24.786;110.488;2023-02-18T06:16:49;46.30;;;14.25;;
22883;SDS011;13386;24.786;110.488;2023-02-18T06:19:19;46.08;;;15.45;;
22883;SDS011;13386;24.786;110.488;2023-02-18T06:21:49;39.53;;;14.52;;
22883;SDS011;13386;24.786;110.488;2023-02-18T06:24:21;38.78;;;13.82;;
22883;SDS011;13386;24.786;110.488;2023-02-18T06:26:52;40.58;;;14.60;;
22883;SDS011;13386;24.786;110.488;2023-02-18T06:29:22;42.38;;;14.65;;
22883;SDS011;13386;24.786;110.488;2023-02-18T06:31:55;41.47;;;13.52;;
22883;SDS011;13386;24.786;110.488;2023-02-18T06:34:25;40.08;;;13.20;;
22883;SDS011;13386;24.786;110.488;2023-02-18T06:36:56;34.67;;;13.48;;
22883;SDS011;13386;24.786;110.488;2023-02-18T06:39:31;40.95;;;13.98;;
22883;SDS011;13386;24.786;110.488;2023-02-18T06:42:04;39.35;;;14.38;;
22883;SDS011;13386;24.786;110.488;2023-02-18T06:44:36;40.85;;;14.85;;
22883;SDS011;13386;24.786;110.488;2023-02-18T06:47:06;38.35;;;13.77;;
22883;SDS011;13386;24.786;110.488;2023-02-18T06:49:36;42.63;;;14.23;;
22883;SDS011;13386;24.786;110.488;2023-02-18T06:52:07;37.33;;;14.02;;
22883;SDS011;13386;24.786;110.488;2023-02-18T06:54:40;41.10;;;14.18;;
22883;SDS011;13386;24.786;110.488;2023-02-18T06:57:10;38.30;;;14.60;;
22883;SDS011;13386;24.786;110.488;2023-02-18T06:59:40;41.28;;;14.57;;
22883;SDS011;13386;24.786;110.488;2023-02-18T07:02:11;41.67;;;14.40;;
22883;SDS011;13386;24.786;110.488;2023-02-18T07:04:42;41.17;;;14.05;;
22883;SDS011;13386;24.786;110.488;2023-02-18T07:07:13;40.53;;;14.48;;
22883;SDS011;13386;24.786;110.488;2023-02-18T07:09:45;39.33;;;14.43;;
22883;SDS011;13386;24.786;110.488;2023-02-18T07:12:15;40.28;;;15.07;;
22883;SDS011;13386;24.786;110.488;2023-02-18T07:14:49;35.45;;;14.25;;
22883;SDS011;13386;24.786;110.488;2023-02-18T07:17:19;42.10;;;14.65;;
22883;SDS011;13386;24.786;110.488;2023-02-18T07:19:51;48.35;;;16.35;;
22883;SDS011;13386;24.786;110.488;2023-02-18T07:22:23;44.60;;;15.25;;
22883;SDS011;13386;24.786;110.488;2023-02-18T07:24:55;41.78;;;16.08;;
22883;SDS011;13386;24.786;110.488;2023-02-18T07:27:25;40.13;;;15.15;;
22883;SDS011;13386;24.786;110.488;2023-02-18T07:29:55;45.55;;;15.70;;
22883;SDS011;13386;24.786;110.488;2023-02-18T07:32:26;47.42;;;15.77;;
22883;SDS011;13386;24.786;110.488;2023-02-18T07:34:57;43.80;;;15.23;;
22883;SDS011;13386;24.786;110.488;2023-02-18T07:37:27;40.70;;;14.80;;
22883;SDS011;13386;24.786;110.488;2023-02-18T07:40:00;47.00;;;15.65;;
22883;SDS011;13386;24.786;110.488;2023-02-18T07:42:31;39.70;;;15.05;;
22883;SDS011;13386;24.786;110.488;2023-02-18T07:45:01;41.15;;;14.57;;
22883;SDS011;13386;24.786;110.488;2023-02-18T07:47:31;36.17;;;14.30;;
22883;SDS011;13386;24.786;110.488;2023-02-18T07:50:02;35.50;;;14.00;;
22883;SDS011;13386;24.786;110.488;2023-02-18T07:52:33;37.88;;;13.48;;
22883;SDS011;13386;24.786;110.488;2023-02-18T07:55:05;39.53;;;13.90;;
22883;SDS011;13386;24.786;110.488;2023-02-18T07:57:35;40.72;;;13.85;;
22883;SDS011;13386;24.786;110.488;2023-02-18T08:00:23;31.30;;;12.30;;
22883;SDS011;13386;24.786;110.488;2023-02-18T08:02:54;37.80;;;13.05;;
22883;SDS011;13386;24.786;110.488;2023-02-18T08:05:25;36.35;;;13.93;;
22883;SDS011;13386;24.786;110.488;2023-02-18T08:07:57;35.08;;;12.82;;
22883;SDS011;13386;24.786;110.488;2023-02-18T08:10:31;40.67;;;12.80;;
22883;SDS011;13386;24.786;110.488;2023-02-18T08:13:01;34.22;;;13.00;;
22883;SDS011;13386;24.786;110.488;2023-02-18T08:15:31;36.70;;;12.70;;
22883;SDS011;13386;24.786;110.488;2023-02-18T08:18:02;34.75;;;12.60;;
22883;SDS011;13386;24.786;110.488;2023-02-18T08:20:34;33.58;;;12.57;;
22883;SDS011;13386;24.786;110.488;2023-02-18T08:23:06;32.30;;;12.13;;
22883;SDS011;13386;24.786;110.488;2023-02-18T08:25:38;33.47;;;11.70;;
22883;SDS011;13386;24.786;110.488;2023-02-18T08:28:08;34.88;;;12.82;;
22883;SDS011;13386;24.786;110.488;2023-02-18T08:30:39;33.13;;;12.63;;
22883;SDS011;13386;24.786;110.488;2023-02-18T08:33:13;30.15;;;12.02;;
22883;SDS011;13386;24.786;110.488;2023-02-18T08:35:44;28.85;;;11.80;;
22883;SDS011;13386;24.786;110.488;2023-02-18T08:38:15;30.95;;;12.45;;
22883;SDS011;13386;24.786;110.488;2023-02-18T08:40:48;34.20;;;12.70;;
22883;SDS011;13386;24.786;110.488;2023-02-18T08:43:18;32.92;;;12.30;;
22883;SDS011;13386;24.786;110.488;2023-02-18T08:45:48;32.33;;;12.23;;
22883;SDS011;13386;24.786;110.488;2023-02-18T08:48:19;36.70;;;13.57;;
22883;SDS011;13386;24.786;110.488;2023-02-18T08:50:49;34.63;;;12.38;;
22883;SDS011;13386;24.786;110.488;2023-02-18T08:53:19;35.90;;;12.80;;
22883;SDS011;13386;24.786;110.488;2023-02-18T08:55:54;33.97;;;12.32;;
22883;SDS011;13386;24.786;110.488;2023-02-18T08:58:24;29.63;;;11.85;;
22883;SDS011;13386;24.786;110.488;2023-02-18T09:00:54;33.40;;;12.45;;
22883;SDS011;13386;24.786;110.488;2023-02-18T09:03:25;33.00;;;12.23;;
22883;SDS011;13386;24.786;110.488;2023-02-18T09:05:55;38.22;;;14.27;;
22883;SDS011;13386;24.786;110.488;2023-02-18T09:08:25;92.00;;;32.42;;
22883;SDS011;13386;24.786;110.488;2023-02-18T09:10:59;128.07;;;43.63;;
22883;SDS011;13386;24.786;110.488;2023-02-18T09:13:30;138.40;;;47.75;;
22883;SDS011;13386;24.786;110.488;2023-02-18T09:16:04;131.07;;;48.15;;
22883;SDS011;13386;24.786;110.488;2023-02-18T09:18:34;147.68;;;49.95;;
22883;SDS011;13386;24.786;110.488;2023-02-18T09:21:05;138.40;;;49.00;;
22883;SDS011;13386;24.786;110.488;2023-02-18T09:23:36;136.30;;;48.40;;
22883;SDS011;13386;24.786;110.488;2023-02-18T09:26:09;153.73;;;52.40;;
22883;SDS011;13386;24.786;110.488;2023-02-18T09:28:40;140.07;;;46.60;;
22883;SDS011;13386;24.786;110.488;2023-02-18T09:31:13;149.05;;;50.67;;
22883;SDS011;13386;24.786;110.488;2023-02-18T09:33:44;143.48;;;47.00;;
22883;SDS011;13386;24.786;110.488;2023-02-18T09:36:14;133.65;;;44.55;;
22883;SDS011;13386;24.786;110.488;2023-02-18T09:38:44;138.68;;;45.13;;
22883;SDS011;13386;24.786;110.488;2023-02-18T09:41:18;136.48;;;45.35;;
22883;SDS011;13386;24.786;110.488;2023-02-18T09:43:53;122.93;;;42.50;;
22883;SDS011;13386;24.786;110.488;2023-02-18T09:46:27;125.00;;;39.92;;
22883;SDS011;13386;24.786;110.488;2023-02-18T09:49:03;135.23;;;47.17;;
22883;SDS011;13386;24.786;110.488;2023-02-18T09:51:35;137.40;;;43.55;;
22883;SDS011;13386;24.786;110.488;2023-02-18T09:54:07;155.05;;;48.65;;
22883;SDS011;13386;24.786;110.488;2023-02-18T09:56:39;155.85;;;51.55;;
22883;SDS011;13386;24.786;110.488;2023-02-18T09:59:11;142.50;;;45.72;;
22883;SDS011;13386;24.786;110.488;2023-02-18T10:01:42;136.55;;;43.70;;
22883;SDS011;13386;24.786;110.488;2023-02-18T10:04:13;127.20;;;39.00;;
22883;SDS011;13386;24.786;110.488;2023-02-18T10:06:44;126.30;;;42.13;;
22883;SDS011;13386;24.786;110.488;2023-02-18T10:09:18;122.88;;;42.38;;
22883;SDS011;13386;24.786;110.488;2023-02-18T10:11:51;132.95;;;43.67;;
22883;SDS011;13386;24.786;110.488;2023-02-18T10:14:23;137.68;;;43.67;;
22883;SDS011;13386;24.786;110.488;2023-02-18T10:16:55;133.65;;;43.03;;
22883;SDS011;13386;24.786;110.488;2023-02-18T10:19:29;123.88;;;41.92;;
22883;SDS011;13386;24.786;110.488;2023-02-18T10:22:01;129.15;;;42.40;;
22883;SDS011;13386;24.786;110.488;2023-02-18T10:24:32;128.13;;;42.92;;
22883;SDS011;13386;24.786;110.488;2023-02-18T10:27:06;113.25;;;37.40;;
22883;SDS011;13386;24.786;110.488;2023-02-18T10:29:37;125.85;;;40.88;;
22883;SDS011;13386;24.786;110.488;2023-02-18T10:32:09;110.25;;;37.83;;
22883;SDS011;13386;24.786;110.488;2023-02-18T10:34:46;121.40;;;39.45;;
22883;SDS011;13386;24.786;110.488;2023-02-18T10:37:22;128.50;;;44.35;;
22883;SDS011;13386;24.786;110.488;2023-02-18T10:39:59;131.18;;;43.42;;
22883;SDS011;13386;24.786;110.488;2023-02-18T10:42:37;114.63;;;41.53;;
22883;SDS011;13386;24.786;110.488;2023-02-18T10:45:14;128.90;;;41.63;;
22883;SDS011;13386;24.786;110.488;2023-02-18T10:47:49;132.90;;;46.40;;
22883;SDS011;13386;24.786;110.488;2023-02-18T10:50:25;127.85;;;42.45;;
22883;SDS011;13386;24.786;110.488;2023-02-18T10:52:58;127.53;;;42.88;;
22883;SDS011;13386;24.786;110.488;2023-02-18T10:55:34;120.22;;;38.83;;
22883;SDS011;13386;24.786;110.488;2023-02-18T11:00:53;128.95;;;43.88;;
22883;SDS011;13386;24.786;110.488;2023-02-18T11:03:24;120.90;;;39.22;;
22883;SDS011;13386;24.786;110.488;2023-02-18T11:05:55;118.10;;;39.92;;
22883;SDS011;13386;24.786;110.488;2023-02-18T11:08:26;143.77;;;46.15;;
22883;SDS011;13386;24.786;110.488;2023-02-18T11:10:58;139.68;;;45.53;;
22883;SDS011;13386;24.786;110.488;2023-02-18T11:13:37;146.02;;;45.80;;
22883;SDS011;13386;24.786;110.488;2023-02-18T11:16:10;119.50;;;40.47;;
22883;SDS011;13386;24.786;110.488;2023-02-18T11:18:41;131.45;;;43.40;;
22883;SDS011;13386;24.786;110.488;2023-02-18T11:21:20;116.97;;;38.63;;
22883;SDS011;13386;24.786;110.488;2023-02-18T11:23:50;138.30;;;45.67;;
22883;SDS011;13386;24.786;110.488;2023-02-18T11:26:22;136.38;;;46.67;;
22883;SDS011;13386;24.786;110.488;2023-02-18T11:28:56;141.40;;;47.70;;
22883;SDS011;13386;24.786;110.488;2023-02-18T11:31:35;145.43;;;48.13;;
22883;SDS011;13386;24.786;110.488;2023-02-18T11:34:13;145.73;;;45.58;;
22883;SDS011;13386;24.786;110.488;2023-02-18T11:36:44;146.90;;;48.77;;
22883;SDS011;13386;24.786;110.488;2023-02-18T11:39:16;145.43;;;46.38;;
22883;SDS011;13386;24.786;110.488;2023-02-18T11:41:47;162.70;;;50.67;;
22883;SDS011;13386;24.786;110.488;2023-02-18T11:44:19;143.40;;;47.63;;
22883;SDS011;13386;24.786;110.488;2023-02-18T11:46:58;152.25;;;46.95;;
22883;SDS011;13386;24.786;110.488;2023-02-18T11:49:30;144.85;;;45.35;;
22883;SDS011;13386;24.786;110.488;2023-02-18T11:52:03;140.25;;;45.38;;
22883;SDS011;13386;24.786;110.488;2023-02-18T11:54:34;137.68;;;45.10;;
22883;SDS011;13386;24.786;110.488;2023-02-18T11:57:09;172.05;;;53.10;;
22883;SDS011;13386;24.786;110.488;2023-02-18T11:59:40;161.77;;;50.17;;
22883;SDS011;13386;24.786;110.488;2023-02-18T12:02:21;162.88;;;52.85;;
22883;SDS011;13386;24.786;110.488;2023-02-18T12:04:57;160.18;;;49.53;;
22883;SDS011;13386;24.786;110.488;2023-02-18T12:07:28;170.75;;;55.70;;
22883;SDS011;13386;24.786;110.488;2023-02-18T12:10:02;151.23;;;51.00;;
22883;SDS011;13386;24.786;110.488;2023-02-18T12:12:34;145.50;;;49.35;;
22883;SDS011;13386;24.786;110.488;2023-02-18T12:15:07;154.48;;;50.10;;
22883;SDS011;13386;24.786;110.488;2023-02-18T12:17:48;161.85;;;51.85;;
22883;SDS011;13386;24.786;110.488;2023-02-18T12:20:23;159.95;;;50.50;;
22883;SDS011;13386;24.786;110.488;2023-02-18T12:22:58;161.75;;;53.25;;
22883;SDS011;13386;24.786;110.488;2023-02-18T12:25:36;156.45;;;50.15;;
22883;SDS011;13386;24.786;110.488;2023-02-18T12:28:18;154.23;;;49.35;;
22883;SDS011;13386;24.786;110.488;2023-02-18T12:31:01;153.65;;;49.28;;
22883;SDS011;13386;24.786;110.488;2023-02-18T12:33:42;152.18;;;50.78;;
22883;SDS011;13386;24.786;110.488;2023-02-18T12:36:15;160.77;;;50.33;;
22883;SDS011;13386;24.786;110.488;2023-02-18T12:38:52;152.10;;;51.88;;
22883;SDS011;13386;24.786;110.488;2023-02-18T12:41:31;131.13;;;44.28;;
22883;SDS011;13386;24.786;110.488;2023-02-18T12:44:03;139.88;;;47.88;;
22883;SDS011;13386;24.786;110.488;2023-02-18T12:46:45;159.07;;;49.00;;
22883;SDS011;13386;24.786;110.488;2023-02-18T12:49:22;142.73;;;46.90;;
22883;SDS011;13386;24.786;110.488;2023-02-18T12:52:04;148.23;;;46.70;;
22883;SDS011;13386;24.786;110.488;2023-02-18T12:54:39;149.30;;;48.30;;
22883;SDS011;13386;24.786;110.488;2023-02-18T13:00:02;136.68;;;44.53;;
22883;SDS011;13386;24.786;110.488;2023-02-18T13:02:41;142.85;;;45.75;;
22883;SDS011;13386;24.786;110.488;2023-02-18T13:05:21;139.95;;;46.40;;
22883;SDS011;13386;24.786;110.488;2023-02-18T13:07:55;143.90;;;46.25;;
22883;SDS011;13386;24.786;110.488;2023-02-18T13:10:35;137.30;;;44.97;;
22883;SDS011;13386;24.786;110.488;2023-02-18T13:13:13;157.05;;;50.60;;
22883;SDS011;13386;24.786;110.488;2023-02-18T13:15:46;140.93;;;46.60;;
22883;SDS011;13386;24.786;110.488;2023-02-18T13:18:20;147.27;;;47.95;;
22883;SDS011;13386;24.786;110.488;2023-02-18T13:20:57;146.02;;;47.85;;
22883;SDS011;13386;24.786;110.488;2023-02-18T13:23:30;135.98;;;48.80;;
22883;SDS011;13386;24.786;110.488;2023-02-18T13:26:06;133.65;;;45.25;;
22883;SDS011;13386;24.786;110.488;2023-02-18T13:28:39;134.52;;;42.53;;
22883;SDS011;13386;24.786;110.488;2023-02-18T13:31:21;138.02;;;46.28;;
22883;SDS011;13386;24.786;110.488;2023-02-18T13:33:56;151.38;;;47.33;;
22883;SDS011;13386;24.786;110.488;2023-02-18T13:39:14;131.55;;;43.90;;
22883;SDS011;13386;24.786;110.488;2023-02-18T13:42:22;121.93;;;39.78;;
22883;SDS011;13386;24.786;110.488;2023-02-18T13:47:35;129.32;;;44.75;;
22883;SDS011;13386;24.786;110.488;2023-02-18T13:50:15;143.40;;;48.17;;
22883;SDS011;13386;24.786;110.488;2023-02-18T13:52:45;137.40;;;46.53;;
22883;SDS011;13386;24.786;110.488;2023-02-18T13:55:20;143.38;;;47.53;;
22883;SDS011;13386;24.786;110.488;2023-02-18T13:57:53;143.13;;;45.97;;
22883;SDS011;13386;24.786;110.488;2023-02-18T14:00:23;127.13;;;43.30;;
22883;SDS011;13386;24.786;110.488;2023-02-18T14:02:57;147.68;;;49.08;;
22883;SDS011;13386;24.786;110.488;2023-02-18T14:05:37;141.23;;;48.35;;
22883;SDS011;13386;24.786;110.488;2023-02-18T14:08:28;137.75;;;46.47;;
22883;SDS011;13386;24.786;110.488;2023-02-18T14:13:49;141.48;;;47.70;;
22883;SDS011;13386;24.786;110.488;2023-02-18T14:16:22;162.60;;;53.70;;
22883;SDS011;13386;24.786;110.488;2023-02-18T14:18:57;139.45;;;46.70;;
22883;SDS011;13386;24.786;110.488;2023-02-18T14:21:40;133.32;;;43.30;;
22883;SDS011;13386;24.786;110.488;2023-02-18T14:24:12;142.60;;;46.63;;
22883;SDS011;13386;24.786;110.488;2023-02-18T14:26:45;152.30;;;49.58;;
22883;SDS011;13386;24.786;110.488;2023-02-18T14:29:25;146.18;;;46.45;;
22883;SDS011;13386;24.786;110.488;2023-02-18T14:31:56;149.68;;;49.15;;
22883;SDS011;13386;24.786;110.488;2023-02-18T14:37:33;145.15;;;46.72;;
22883;SDS011;13386;24.786;110.488;2023-02-18T14:40:13;141.68;;;47.13;;
22883;SDS011;13386;24.786;110.488;2023-02-18T14:42:49;123.25;;;40.13;;
22883;SDS011;13386;24.786;110.488;2023-02-18T14:48:27;134.07;;;45.03;;
22883;SDS011;13386;24.786;110.488;2023-02-18T14:51:04;143.43;;;46.55;;
22883;SDS011;13386;24.786;110.488;2023-02-18T14:53:39;140.60;;;45.13;;
22883;SDS011;13386;24.786;110.488;2023-02-18T14:56:13;138.80;;;46.08;;
22883;SDS011;13386;24.786;110.488;2023-02-18T14:58:44;141.32;;;45.97;;
22883;SDS011;13386;24.786;110.488;2023-02-18T15:01:20;139.30;;;47.92;;